Urbana, Illinois
Current Conditions -  °F | °C
As of 11:23 AM on Thursday 18 Dec 2014 (Local Time) from KCMI Reporting Station
Light Snow Light Snow  
Wind Chill: -3°   Ceiling: 3100
Heat Index: -3°   Visibility: 3mi
Dew Point: -6°   Wind: 0mph
Humidity: 81%   Direction: NA
Pressure: 30.28"   Gusts: NA
Location:  40.12°N, 88.2°W
Report Text: KCMI 181723Z 00000KT 3SM -SN FEW009 BKN031 OVC060 M03/M06 A3028 RMK AO2 TWR VIS 4 P0000 T10331061
Loading
Personal Weather Stations






























Interactive Weather Map New forecast layout! Learn more

10-Day Weather Forecast

Advertisements
Track Severe Weather on mobile